Time;durP1;ratioP1;P1;durP2;ratioP2;P2;SDS_P1;SDS_P2;PMS_P1;PMS_P2;Temp;Humidity;BMP_temperature;BMP_pressure;BME280_temperature;BME280_humidity;BME280_pressure;Samples;Min_cycle;Max_cycle;Signal;HPM_P1;HPM_P2
2022/07/14 00:01:45;;;;;;;8.52;2.30;;;;;;;;;;4981161;28;20072;-64
2022/07/14 00:04:11;;;;;;;10.40;2.28;;;;;;;;;;4980464;28;20141;-65
2022/07/14 00:06:37;;;;;;;7.25;2.05;;;;;;;;;;4979368;28;20051;-64
2022/07/14 00:09:04;;;;;;;10.57;2.85;;;;;;;;;;4977741;28;20050;-65
2022/07/14 00:11:30;;;;;;;8.25;1.98;;;;;;;;;;4965837;28;20073;-65
2022/07/14 00:13:58;;;;;;;7.72;1.73;;;;;;;;;;4978987;28;20030;-65
2022/07/14 00:16:25;;;;;;;7.60;2.17;;;;;;;;;;4965808;28;20405;-64
2022/07/14 00:18:51;;;;;;;9.27;2.63;;;;;;;;;;4981957;28;20036;-65
2022/07/14 00:21:17;;;;;;;12.90;2.55;;;;;;;;;;4981049;28;20081;-64
2022/07/14 00:23:45;;;;;;;12.75;2.55;;;;;;;;;;4980853;28;20374;-64
2022/07/14 00:26:11;;;;;;;11.82;2.97;;;;;;;;;;4960320;28;20192;-65
2022/07/14 00:28:37;;;;;;;17.92;2.75;;;;;;;;;;4956307;28;20497;-64
2022/07/14 00:31:07;;;;;;;12.07;2.42;;;;;;;;;;4977695;28;20069;-64
2022/07/14 00:33:33;;;;;;;10.25;2.53;;;;;;;;;;4983083;28;20054;-64
2022/07/14 00:36:00;;;;;;;13.98;3.38;;;;;;;;;;4975096;28;20997;-64
2022/07/14 00:38:26;;;;;;;10.10;2.28;;;;;;;;;;4980782;28;20053;-65
2022/07/14 00:40:52;;;;;;;8.45;2.65;;;;;;;;;;4981509;28;20501;-64
2022/07/14 00:43:18;;;;;;;12.18;2.75;;;;;;;;;;4979427;28;20093;-65
2022/07/14 00:45:45;;;;;;;7.95;1.90;;;;;;;;;;4961406;28;20045;-64
2022/07/14 00:48:12;;;;;;;6.63;1.80;;;;;;;;;;4979292;28;20129;-64
2022/07/14 00:50:41;;;;;;;3.78;1.17;;;;;;;;;;4975142;28;20042;-65
2022/07/14 00:53:08;;;;;;;6.20;1.50;;;;;;;;;;4981465;28;20136;-64
2022/07/14 00:55:35;;;;;;;7.85;2.03;;;;;;;;;;4981698;28;20396;-64
2022/07/14 00:58:02;;;;;;;7.20;1.85;;;;;;;;;;4978400;28;20214;-64
2022/07/14 01:00:28;;;;;;;5.72;1.88;;;;;;;;;;4980503;28;20050;-64
2022/07/14 01:02:54;;;;;;;6.93;1.80;;;;;;;;;;4979611;28;20098;-64
2022/07/14 01:05:20;;;;;;;7.00;1.88;;;;;;;;;;4981431;28;20050;-64
2022/07/14 01:07:47;;;;;;;7.40;1.88;;;;;;;;;;4979789;28;20271;-64
2022/07/14 01:10:13;;;;;;;6.88;1.88;;;;;;;;;;4964870;28;20050;-64
2022/07/14 01:12:47;;;;;;;5.28;1.98;;;;;;;;;;4963784;28;20952;-64
2022/07/14 01:15:14;;;;;;;8.90;2.22;;;;;;;;;;4980461;28;20143;-64
2022/07/14 01:17:41;;;;;;;7.43;2.05;;;;;;;;;;4978547;28;20045;-64
2022/07/14 01:20:08;;;;;;;7.13;2.30;;;;;;;;;;4988310;28;20049;-65
2022/07/14 01:22:34;;;;;;;6.97;1.90;;;;;;;;;;5045135;28;20068;-65
2022/07/14 01:25:06;;;;;;;8.07;2.28;;;;;;;;;;5041026;28;20051;-64
2022/07/14 01:27:33;;;;;;;6.78;2.05;;;;;;;;;;5037324;28;20732;-64
2022/07/14 01:29:59;;;;;;;4.97;2.00;;;;;;;;;;5036169;28;20045;-64
2022/07/14 01:32:25;;;;;;;8.98;2.30;;;;;;;;;;5036543;28;20143;-64
2022/07/14 01:34:52;;;;;;;10.48;3.05;;;;;;;;;;5043924;28;20037;-65
2022/07/14 01:37:19;;;;;;;9.63;2.38;;;;;;;;;;5039424;28;20144;-64
2022/07/14 01:39:45;;;;;;;9.45;3.08;;;;;;;;;;5044741;28;20045;-64
2022/07/14 01:42:11;;;;;;;8.13;2.28;;;;;;;;;;5047463;28;20044;-64
2022/07/14 01:44:38;;;;;;;9.15;2.85;;;;;;;;;;5043642;28;20519;-65
2022/07/14 01:47:04;;;;;;;9.35;2.55;;;;;;;;;;5044309;28;20053;-64
2022/07/14 01:49:30;;;;;;;10.18;2.85;;;;;;;;;;5041817;28;20044;-65
2022/07/14 01:51:56;;;;;;;8.85;2.55;;;;;;;;;;5042312;28;20515;-64
2022/07/14 01:54:24;;;;;;;6.40;2.55;;;;;;;;;;5036898;28;20056;-64
2022/07/14 01:56:51;;;;;;;7.03;2.60;;;;;;;;;;5040104;28;20078;-65
2022/07/14 01:59:17;;;;;;;9.73;3.05;;;;;;;;;;5044665;28;20049;-65
2022/07/14 02:01:44;;;;;;;4.82;2.13;;;;;;;;;;5042195;28;20067;-64
2022/07/14 02:04:13;;;;;;;4.35;1.70;;;;;;;;;;5037897;28;20413;-64
2022/07/14 02:06:43;;;;;;;2.22;0.70;;;;;;;;;;5037250;28;20045;-64
2022/07/14 02:09:09;;;;;;;3.03;1.30;;;;;;;;;;5035965;28;20509;-64
2022/07/14 02:14:21;;;;;;;2.13;1.00;;;;;;;;;;5040009;28;20052;-64
2022/07/14 02:16:47;;;;;;;4.15;1.70;;;;;;;;;;5036650;28;20045;-64
2022/07/14 02:19:13;;;;;;;3.63;1.75;;;;;;;;;;5039222;28;20164;-64
2022/07/14 02:21:40;;;;;;;3.50;1.67;;;;;;;;;;4958972;28;20054;-65
2022/07/14 02:24:07;;;;;;;3.83;1.35;;;;;;;;;;4957654;28;20043;-64
2022/07/14 02:26:33;;;;;;;5.97;2.55;;;;;;;;;;4962136;28;20147;-64
2022/07/14 02:29:00;;;;;;;3.90;2.00;;;;;;;;;;4963179;28;20043;-64
2022/07/14 02:31:26;;;;;;;3.78;1.70;;;;;;;;;;4961763;28;21798;-64
2022/07/14 02:33:52;;;;;;;5.55;1.80;;;;;;;;;;4970298;28;20176;-64
2022/07/14 02:36:18;;;;;;;2.22;1.30;;;;;;;;;;4969254;28;20035;-64
2022/07/14 02:38:44;;;;;;;6.65;1.63;;;;;;;;;;4967693;28;20120;-65
2022/07/14 02:41:11;;;;;;;5.15;2.10;;;;;;;;;;4966423;28;20742;-64
2022/07/14 02:43:37;;;;;;;3.58;1.70;;;;;;;;;;4965235;28;20493;-65
2022/07/14 02:46:04;;;;;;;3.65;1.80;;;;;;;;;;4967589;28;20103;-64
2022/07/14 02:48:30;;;;;;;2.60;1.42;;;;;;;;;;4972090;28;20123;-64
2022/07/14 02:51:00;;;;;;;2.72;1.15;;;;;;;;;;4969512;28;20053;-66
2022/07/14 02:53:27;;;;;;;3.70;1.10;;;;;;;;;;4968488;28;20038;-65
2022/07/14 02:55:53;;;;;;;3.38;1.60;;;;;;;;;;4973807;28;20034;-64
2022/07/14 02:58:20;;;;;;;5.65;1.30;;;;;;;;;;4967935;28;20074;-64
2022/07/14 03:00:46;;;;;;;8.07;1.65;;;;;;;;;;4966655;28;20042;-65
2022/07/14 03:03:12;;;;;;;32.95;2.58;;;;;;;;;;4969327;28;20042;-64
2022/07/14 03:05:39;;;;;;;24.85;2.20;;;;;;;;;;4971371;28;20517;-65
2022/07/14 03:08:06;;;;;;;20.50;2.20;;;;;;;;;;4970308;28;20054;-64
2022/07/14 03:10:32;;;;;;;3.90;1.50;;;;;;;;;;4972249;28;20034;-64
2022/07/14 03:12:58;;;;;;;5.25;1.50;;;;;;;;;;4967302;28;20038;-64
2022/07/14 03:15:25;;;;;;;3.00;1.35;;;;;;;;;;4971284;28;20191;-64
2022/07/14 03:17:51;;;;;;;4.10;1.85;;;;;;;;;;4964430;28;20168;-64
2022/07/14 03:20:17;;;;;;;4.60;2.40;;;;;;;;;;4966779;28;20058;-65
2022/07/14 03:22:43;;;;;;;5.13;1.77;;;;;;;;;;4966740;28;20054;-65
2022/07/14 03:25:10;;;;;;;5.70;2.25;;;;;;;;;;4966783;28;20379;-64
2022/07/14 03:27:38;;;;;;;2.33;1.38;;;;;;;;;;4964824;28;20077;-65
2022/07/14 03:30:05;;;;;;;4.78;1.80;;;;;;;;;;4966203;28;20055;-64
2022/07/14 03:32:31;;;;;;;4.32;1.85;;;;;;;;;;4958205;28;20510;-65
2022/07/14 03:34:57;;;;;;;3.47;1.38;;;;;;;;;;4966239;28;20042;-64
2022/07/14 03:37:24;;;;;;;15.73;1.77;;;;;;;;;;4963726;28;20055;-65
2022/07/14 03:39:50;;;;;;;2.47;1.40;;;;;;;;;;4964028;28;20074;-65
2022/07/14 03:42:17;;;;;;;2.42;1.20;;;;;;;;;;4966358;28;20050;-65
2022/07/14 03:44:45;;;;;;;2.95;1.55;;;;;;;;;;4963251;28;20138;-65
2022/07/14 03:47:11;;;;;;;5.13;2.42;;;;;;;;;;4961434;28;20046;-64
2022/07/14 03:49:37;;;;;;;4.45;2.22;;;;;;;;;;4962199;28;20077;-65
2022/07/14 03:52:04;;;;;;;3.45;2.17;;;;;;;;;;4964553;28;20060;-65
2022/07/14 03:54:30;;;;;;;5.43;2.00;;;;;;;;;;4966167;28;20422;-65
2022/07/14 03:56:56;;;;;;;6.55;2.53;;;;;;;;;;4971306;28;20038;-65
2022/07/14 03:59:22;;;;;;;6.93;2.90;;;;;;;;;;4965026;28;20039;-64
2022/07/14 04:01:48;;;;;;;5.32;3.15;;;;;;;;;;4962865;28;20042;-65
2022/07/14 04:04:15;;;;;;;10.50;2.80;;;;;;;;;;4961785;28;21607;-65
2022/07/14 04:06:41;;;;;;;6.22;3.00;;;;;;;;;;4963090;28;20487;-64
2022/07/14 04:09:07;;;;;;;13.88;2.80;;;;;;;;;;4965052;28;20042;-64
2022/07/14 04:11:34;;;;;;;7.53;3.40;;;;;;;;;;4965474;28;20113;-64
2022/07/14 04:14:00;;;;;;;12.00;3.08;;;;;;;;;;4963595;28;20206;-65
2022/07/14 04:16:27;;;;;;;3.50;2.00;;;;;;;;;;4964247;28;20061;-64
2022/07/14 04:18:53;;;;;;;4.13;1.60;;;;;;;;;;4964367;28;20078;-64
2022/07/14 04:21:19;;;;;;;3.92;1.55;;;;;;;;;;4978845;28;20609;-64
2022/07/14 04:23:45;;;;;;;6.43;2.00;;;;;;;;;;4983550;28;20046;-64
2022/07/14 04:26:12;;;;;;;6.13;1.75;;;;;;;;;;4982069;28;20823;-64
2022/07/14 04:28:38;;;;;;;5.90;2.10;;;;;;;;;;4984193;28;20128;-64
2022/07/14 04:31:06;;;;;;;5.10;2.00;;;;;;;;;;4985160;28;20050;-64
2022/07/14 04:33:33;;;;;;;4.72;1.85;;;;;;;;;;4965997;28;20050;-64
2022/07/14 04:35:59;;;;;;;5.13;2.47;;;;;;;;;;4961630;28;20104;-64
2022/07/14 04:38:25;;;;;;;9.52;2.35;;;;;;;;;;4964166;28;20062;-64
2022/07/14 04:40:52;;;;;;;7.00;2.80;;;;;;;;;;4987849;28;20046;-64
2022/07/14 04:43:18;;;;;;;7.53;2.40;;;;;;;;;;4983456;28;20103;-64
2022/07/14 04:45:46;;;;;;;9.95;3.13;;;;;;;;;;4984292;28;20358;-64
2022/07/14 04:48:12;;;;;;;10.93;2.80;;;;;;;;;;4984972;28;20046;-64
2022/07/14 04:53:23;;;;;;;9.82;3.20;;;;;;;;;;4965600;28;20157;-64
2022/07/14 04:55:49;;;;;;;8.35;4.00;;;;;;;;;;4985158;28;20088;-64
2022/07/14 04:58:16;;;;;;;10.93;3.85;;;;;;;;;;4987291;28;20038;-64
2022/07/14 05:00:42;;;;;;;7.88;3.88;;;;;;;;;;4987091;28;20129;-65
2022/07/14 05:03:08;;;;;;;10.82;3.97;;;;;;;;;;4987822;28;20103;-65
2022/07/14 05:05:35;;;;;;;13.05;5.20;;;;;;;;;;4985222;28;20494;-65
2022/07/14 05:08:01;;;;;;;10.15;4.65;;;;;;;;;;4969682;28;20046;-65
2022/07/14 05:10:28;;;;;;;11.00;4.28;;;;;;;;;;4985959;28;20111;-65
2022/07/14 05:12:54;;;;;;;14.25;3.97;;;;;;;;;;4987017;28;20065;-65
2022/07/14 05:15:20;;;;;;;10.23;4.20;;;;;;;;;;4986980;28;20133;-66
2022/07/14 05:17:46;;;;;;;9.43;4.00;;;;;;;;;;4984180;28;20111;-66
2022/07/14 05:20:12;;;;;;;13.32;5.25;;;;;;;;;;4985353;28;20049;-65
2022/07/14 05:22:40;;;;;;;10.85;4.03;;;;;;;;;;4970152;28;20053;-64
2022/07/14 05:25:07;;;;;;;13.15;4.55;;;;;;;;;;4967832;28;20046;-65
2022/07/14 05:27:33;;;;;;;11.88;4.55;;;;;;;;;;4967796;28;20069;-65
2022/07/14 05:30:00;;;;;;;10.85;4.70;;;;;;;;;;4984986;28;20038;-65
2022/07/14 05:32:26;;;;;;;11.48;4.70;;;;;;;;;;4987027;28;20046;-65
2022/07/14 05:34:52;;;;;;;12.35;4.35;;;;;;;;;;4972626;28;20050;-65
2022/07/14 05:37:18;;;;;;;18.17;4.88;;;;;;;;;;4987376;28;20409;-65
2022/07/14 05:39:44;;;;;;;9.93;4.32;;;;;;;;;;4990351;28;20096;-65
2022/07/14 05:42:12;;;;;;;11.27;3.80;;;;;;;;;;4974199;28;20458;-65
2022/07/14 05:44:38;;;;;;;13.18;4.15;;;;;;;;;;4984688;28;20103;-65
2022/07/14 05:47:04;;;;;;;15.52;3.97;;;;;;;;;;4990820;28;20105;-65
2022/07/14 05:49:30;;;;;;;10.50;3.83;;;;;;;;;;4983786;28;20038;-65
2022/07/14 05:51:56;;;;;;;11.88;3.35;;;;;;;;;;4985179;28;20126;-65
2022/07/14 05:54:23;;;;;;;12.52;3.38;;;;;;;;;;4986766;28;20039;-65
2022/07/14 05:56:49;;;;;;;10.38;2.45;;;;;;;;;;4986484;28;20039;-65
2022/07/14 05:59:15;;;;;;;7.63;2.20;;;;;;;;;;4985244;28;20115;-65
2022/07/14 06:01:41;;;;;;;9.82;2.80;;;;;;;;;;4986280;28;20046;-65
2022/07/14 06:04:07;;;;;;;8.40;2.55;;;;;;;;;;4969053;28;20111;-65
2022/07/14 06:06:33;;;;;;;9.98;2.67;;;;;;;;;;4968474;28;20073;-65
2022/07/14 06:09:00;;;;;;;8.35;2.58;;;;;;;;;;4986588;28;20103;-66
2022/07/14 06:11:26;;;;;;;9.52;2.88;;;;;;;;;;4968948;28;20066;-65
2022/07/14 06:13:52;;;;;;;7.22;1.70;;;;;;;;;;4986162;28;20034;-65
2022/07/14 06:16:18;;;;;;;9.15;1.75;;;;;;;;;;4989401;28;20501;-65
2022/07/14 06:18:44;;;;;;;8.20;1.77;;;;;;;;;;4964322;28;20401;-65
2022/07/14 06:21:11;;;;;;;8.43;1.98;;;;;;;;;;4963952;28;20043;-65
2022/07/14 06:23:37;;;;;;;6.07;1.23;;;;;;;;;;4964883;28;20053;-65
2022/07/14 06:26:08;;;;;;;6.85;1.63;;;;;;;;;;4983118;28;20046;-65
2022/07/14 06:28:35;;;;;;;8.63;1.63;;;;;;;;;;4965900;28;20133;-66
2022/07/14 06:31:01;;;;;;;17.77;2.00;;;;;;;;;;4965196;28;20083;-66
2022/07/14 06:33:27;;;;;;;11.02;2.22;;;;;;;;;;4985138;28;20110;-65
2022/07/14 06:35:53;;;;;;;6.75;1.60;;;;;;;;;;4983587;28;20054;-65
2022/07/14 06:38:19;;;;;;;7.88;1.25;;;;;;;;;;4984066;28;20107;-65
2022/07/14 06:40:46;;;;;;;6.68;1.40;;;;;;;;;;4966028;28;20474;-65
2022/07/14 06:43:12;;;;;;;8.52;1.33;;;;;;;;;;4981251;28;20038;-65
2022/07/14 06:45:39;;;;;;;8.35;1.20;;;;;;;;;;4983124;28;20058;-65
2022/07/14 06:48:06;;;;;;;5.85;1.27;;;;;;;;;;4978938;28;20082;-65
2022/07/14 06:50:32;;;;;;;7.80;1.00;;;;;;;;;;4960781;28;20125;-65
2022/07/14 06:52:58;;;;;;;5.28;1.38;;;;;;;;;;4968363;28;20458;-65
2022/07/14 06:55:25;;;;;;;7.93;1.35;;;;;;;;;;4980951;28;20048;-65
2022/07/14 06:57:51;;;;;;;6.30;1.30;;;;;;;;;;4986279;28;20042;-65
2022/07/14 07:00:18;;;;;;;4.82;1.10;;;;;;;;;;4985490;28;20230;-65
2022/07/14 07:02:44;;;;;;;6.88;1.67;;;;;;;;;;4984938;28;20491;-65
2022/07/14 07:07:57;;;;;;;5.03;1.02;;;;;;;;;;4985075;28;20051;-65
2022/07/14 07:10:23;;;;;;;4.22;0.85;;;;;;;;;;4964744;28;20074;-65
2022/07/14 07:12:50;;;;;;;5.90;1.02;;;;;;;;;;4985096;28;20375;-65
2022/07/14 07:15:16;;;;;;;5.25;0.80;;;;;;;;;;4983391;28;20468;-65
2022/07/14 07:17:42;;;;;;;8.98;1.00;;;;;;;;;;4985749;28;20103;-65
2022/07/14 07:20:09;;;;;;;6.18;1.00;;;;;;;;;;4986235;28;20073;-65
2022/07/14 07:22:36;;;;;;;3.53;0.70;;;;;;;;;;4988104;28;20046;-66
2022/07/14 07:25:03;;;;;;;5.60;0.90;;;;;;;;;;4967175;28;20153;-65
2022/07/14 07:27:29;;;;;;;4.75;0.93;;;;;;;;;;4986553;28;20490;-65
2022/07/14 07:29:55;;;;;;;3.85;0.80;;;;;;;;;;4987996;28;20394;-65
2022/07/14 07:32:22;;;;;;;6.55;1.30;;;;;;;;;;4986289;28;20034;-65
2022/07/14 07:34:48;;;;;;;6.10;1.05;;;;;;;;;;4988704;28;20041;-65
2022/07/14 07:37:15;;;;;;;4.07;0.93;;;;;;;;;;4986247;28;20046;-65
2022/07/14 07:39:41;;;;;;;7.38;1.77;;;;;;;;;;4967711;28;20505;-66
2022/07/14 07:42:07;;;;;;;6.45;1.17;;;;;;;;;;4971941;28;20112;-66
2022/07/14 07:44:34;;;;;;;6.88;1.25;;;;;;;;;;4984878;28;20108;-65
2022/07/14 07:47:01;;;;;;;3.78;0.80;;;;;;;;;;4990727;28;20046;-65
2022/07/14 07:49:27;;;;;;;8.93;1.20;;;;;;;;;;4987645;28;20422;-65
2022/07/14 07:51:57;;;;;;;3.83;0.93;;;;;;;;;;4966830;28;20093;-65
2022/07/14 07:54:24;;;;;;;4.93;1.00;;;;;;;;;;4985072;28;20446;-66
2022/07/14 07:56:50;;;;;;;3.50;0.80;;;;;;;;;;4984682;28;20057;-65
2022/07/14 07:59:16;;;;;;;3.78;0.68;;;;;;;;;;4984226;28;20140;-65
2022/07/14 08:01:42;;;;;;;5.95;0.75;;;;;;;;;;4987485;28;20039;-65
2022/07/14 08:04:09;;;;;;;3.08;0.70;;;;;;;;;;4987009;28;20041;-66
2022/07/14 08:06:35;;;;;;;5.22;0.73;;;;;;;;;;4982942;28;20046;-65
2022/07/14 08:09:02;;;;;;;5.63;0.98;;;;;;;;;;4988695;28;20079;-66
2022/07/14 08:11:29;;;;;;;8.48;0.98;;;;;;;;;;4984575;28;20386;-65
2022/07/14 08:13:55;;;;;;;2.15;0.70;;;;;;;;;;4985641;28;20095;-65
2022/07/14 08:16:21;;;;;;;8.20;0.80;;;;;;;;;;4986136;28;20046;-65
2022/07/14 08:18:49;;;;;;;6.32;1.15;;;;;;;;;;4985222;28;20034;-65
2022/07/14 08:21:16;;;;;;;4.28;1.00;;;;;;;;;;4970566;28;20067;-65
2022/07/14 08:23:42;;;;;;;4.55;0.90;;;;;;;;;;4968334;28;20129;-65
2022/07/14 08:26:08;;;;;;;4.47;1.27;;;;;;;;;;4984864;28;20042;-65
2022/07/14 08:28:34;;;;;;;3.75;0.90;;;;;;;;;;4952012;28;20095;-65
2022/07/14 08:31:00;;;;;;;2.20;0.60;;;;;;;;;;4983050;28;20165;-65
2022/07/14 08:33:26;;;;;;;6.18;0.73;;;;;;;;;;4984970;28;20048;-65
2022/07/14 08:35:53;;;;;;;4.30;0.60;;;;;;;;;;4984019;28;20050;-65
2022/07/14 08:38:20;;;;;;;6.10;1.48;;;;;;;;;;4986101;28;20038;-65
2022/07/14 08:40:47;;;;;;;4.70;1.15;;;;;;;;;;4985189;28;20165;-65
2022/07/14 08:43:13;;;;;;;3.85;1.00;;;;;;;;;;4967608;28;20130;-65
2022/07/14 08:45:41;;;;;;;5.13;0.65;;;;;;;;;;4967280;28;20190;-65
2022/07/14 08:48:09;;;;;;;4.15;0.80;;;;;;;;;;4966572;28;20831;-65
2022/07/14 08:50:35;;;;;;;4.72;0.88;;;;;;;;;;4983633;28;20096;-65
2022/07/14 08:53:03;;;;;;;4.10;0.80;;;;;;;;;;4983942;28;20046;-65
2022/07/14 08:55:30;;;;;;;4.82;1.00;;;;;;;;;;4985851;28;20422;-65
2022/07/14 08:57:56;;;;;;;3.40;0.98;;;;;;;;;;4985249;28;20055;-65
2022/07/14 09:00:22;;;;;;;7.85;1.63;;;;;;;;;;4985219;28;20375;-65
2022/07/14 09:02:50;;;;;;;7.25;0.95;;;;;;;;;;4982451;28;20095;-65
2022/07/14 09:05:17;;;;;;;3.75;0.80;;;;;;;;;;4985559;28;20038;-65
2022/07/14 09:07:43;;;;;;;6.55;1.10;;;;;;;;;;4962733;28;20175;-65
2022/07/14 09:10:10;;;;;;;4.85;0.95;;;;;;;;;;4961696;28;20042;-65
2022/07/14 09:12:37;;;;;;;4.15;0.80;;;;;;;;;;4985775;28;20460;-65
2022/07/14 09:17:50;;;;;;;7.15;1.38;;;;;;;;;;4981296;28;20061;-65
2022/07/14 09:20:17;;;;;;;7.15;1.00;;;;;;;;;;4983706;28;20549;-65
2022/07/14 09:22:43;;;;;;;5.07;1.02;;;;;;;;;;4982821;28;20054;-65
2022/07/14 09:25:11;;;;;;;3.35;0.75;;;;;;;;;;4961727;28;20129;-65
2022/07/14 09:27:37;;;;;;;8.05;0.77;;;;;;;;;;4980562;28;20058;-65
2022/07/14 09:30:05;;;;;;;4.20;0.80;;;;;;;;;;4961896;28;20048;-65
2022/07/14 09:32:41;;;;;;;12.40;1.50;;;;;;;;;;4981638;28;20121;-65
2022/07/14 09:35:07;;;;;;;7.13;1.17;;;;;;;;;;4981515;28;20398;-65
2022/07/14 09:37:33;;;;;;;5.43;0.90;;;;;;;;;;4979901;28;20065;-65
2022/07/14 09:40:00;;;;;;;2.53;0.75;;;;;;;;;;4962270;28;20458;-65
2022/07/14 09:42:45;;;;;;;6.30;0.90;;;;;;;;;;4962436;28;20054;-65
2022/07/14 09:45:14;;;;;;;3.67;0.73;;;;;;;;;;4980471;28;20052;-65
2022/07/14 09:47:56;;;;;;;2.10;0.60;;;;;;;;;;4980326;28;20586;-65
2022/07/14 09:50:33;;;;;;;2.92;0.70;;;;;;;;;;4963043;28;20042;-65
2022/07/14 09:52:59;;;;;;;3.17;0.70;;;;;;;;;;4978188;28;20049;-65
2022/07/14 09:55:25;;;;;;;5.07;1.15;;;;;;;;;;4979993;28;20129;-65
2022/07/14 09:57:52;;;;;;;4.97;0.75;;;;;;;;;;4980435;28;21475;-66
2022/07/14 10:00:19;;;;;;;4.05;0.70;;;;;;;;;;4979024;28;20045;-66
2022/07/14 10:02:46;;;;;;;7.70;1.15;;;;;;;;;;4981226;28;20046;-65
2022/07/14 10:05:12;;;;;;;5.43;1.10;;;;;;;;;;4979507;28;20065;-65
2022/07/14 10:07:41;;;;;;;4.10;0.80;;;;;;;;;;4962934;28;20638;-65
2022/07/14 10:10:08;;;;;;;3.58;0.90;;;;;;;;;;4979478;28;20126;-66
2022/07/14 10:12:36;;;;;;;3.58;0.93;;;;;;;;;;4979521;28;20133;-66
2022/07/14 10:15:05;;;;;;;5.85;0.88;;;;;;;;;;4979396;28;20038;-66
2022/07/14 10:17:32;;;;;;;6.03;1.30;;;;;;;;;;4980477;28;20046;-66
2022/07/14 10:19:58;;;;;;;15.88;2.55;;;;;;;;;;4977886;28;20070;-66
2022/07/14 10:22:24;;;;;;;6.15;1.08;;;;;;;;;;4979320;28;20054;-66
2022/07/14 10:24:51;;;;;;;4.63;0.80;;;;;;;;;;4980521;28;20141;-66
2022/07/14 10:27:18;;;;;;;4.68;0.80;;;;;;;;;;4977484;28;20057;-66
2022/07/14 10:29:52;;;;;;;4.07;0.80;;;;;;;;;;4963005;28;20103;-66
2022/07/14 10:32:27;;;;;;;4.25;1.00;;;;;;;;;;4960534;28;20397;-66
2022/07/14 10:34:59;;;;;;;5.90;1.20;;;;;;;;;;4958917;28;20050;-66
2022/07/14 10:37:42;;;;;;;7.63;1.47;;;;;;;;;;4963612;28;20397;-66
2022/07/14 10:40:20;;;;;;;4.55;1.00;;;;;;;;;;4979236;28;20042;-66
2022/07/14 10:43:01;;;;;;;6.13;0.70;;;;;;;;;;4966641;28;20103;-66
2022/07/14 10:45:27;;;;;;;5.18;0.80;;;;;;;;;;4963533;28;20061;-66
2022/07/14 10:47:54;;;;;;;5.45;0.88;;;;;;;;;;4985055;28;20061;-66
2022/07/14 10:50:21;;;;;;;5.28;1.17;;;;;;;;;;4980848;28;20478;-66
2022/07/14 10:52:57;;;;;;;4.53;1.00;;;;;;;;;;4984788;28;20046;-66
2022/07/14 10:55:33;;;;;;;4.03;0.93;;;;;;;;;;4987159;28;20117;-65
2022/07/14 10:57:59;;;;;;;4.28;0.77;;;;;;;;;;4967842;28;20053;-66
2022/07/14 11:00:48;;;;;;;3.10;0.80;;;;;;;;;;4989614;28;20065;-65
2022/07/14 11:03:22;;;;;;;10.25;1.00;;;;;;;;;;4985418;28;20133;-65
2022/07/14 11:06:08;;;;;;;4.63;0.80;;;;;;;;;;4990198;28;20042;-66
2022/07/14 11:08:36;;;;;;;5.38;0.93;;;;;;;;;;4986483;28;20497;-66
2022/07/14 11:11:08;;;;;;;2.72;0.70;;;;;;;;;;4989892;28;20087;-66
2022/07/14 11:13:34;;;;;;;9.32;1.45;;;;;;;;;;4986504;28;20067;-66
2022/07/14 11:16:03;;;;;;;4.03;0.80;;;;;;;;;;4989643;28;20054;-66
2022/07/14 11:18:34;;;;;;;2.42;0.63;;;;;;;;;;4991108;28;20529;-67
2022/07/14 11:21:12;;;;;;;4.22;1.08;;;;;;;;;;5020641;28;20050;-66
2022/07/14 11:23:52;;;;;;;4.90;1.23;;;;;;;;;;4984919;28;20069;-66
2022/07/14 11:26:34;;;;;;;5.18;1.60;;;;;;;;;;4971333;28;20041;-66
2022/07/14 11:29:02;;;;;;;18.75;2.28;;;;;;;;;;4985379;28;20054;-65
2022/07/14 11:31:42;;;;;;;47.75;4.38;;;;;;;;;;4984998;28;20053;-66
2022/07/14 11:37:04;;;;;;;3.63;1.08;;;;;;;;;;4984356;28;20490;-66
2022/07/14 11:39:35;;;;;;;3.90;0.90;;;;;;;;;;4979634;28;20218;-65
2022/07/14 11:42:02;;;;;;;4.95;0.80;;;;;;;;;;4965567;28;20046;-66
2022/07/14 11:44:36;;;;;;;4.80;1.00;;;;;;;;;;4983100;28;20092;-66
2022/07/14 11:47:03;;;;;;;5.25;0.75;;;;;;;;;;4986355;28;20042;-66
2022/07/14 11:49:30;;;;;;;4.40;0.80;;;;;;;;;;4984386;28;20038;-66
2022/07/14 11:51:56;;;;;;;5.03;0.90;;;;;;;;;;4986175;28;20435;-66
2022/07/14 11:54:23;;;;;;;4.75;0.90;;;;;;;;;;4967743;28;20389;-66
2022/07/14 11:56:49;;;;;;;3.80;0.52;;;;;;;;;;4984856;28;20117;-66
2022/07/14 11:59:19;;;;;;;4.78;0.80;;;;;;;;;;4970575;28;20057;-66
2022/07/14 12:01:45;;;;;;;4.28;0.90;;;;;;;;;;4984741;28;20060;-66
2022/07/14 12:04:14;;;;;;;3.60;0.77;;;;;;;;;;4986729;28;20120;-66
2022/07/14 12:06:43;;;;;;;3.70;0.60;;;;;;;;;;4982942;28;20081;-66
2022/07/14 12:09:10;;;;;;;3.28;0.88;;;;;;;;;;4985612;28;20046;-66
2022/07/14 12:11:36;;;;;;;2.63;0.68;;;;;;;;;;4983514;28;20058;-66
2022/07/14 12:14:03;;;;;;;3.53;0.70;;;;;;;;;;4982960;28;20041;-66
2022/07/14 12:16:41;;;;;;;4.68;0.90;;;;;;;;;;4979740;28;20087;-66
2022/07/14 12:19:09;;;;;;;3.50;0.93;;;;;;;;;;4980366;28;21710;-66
2022/07/14 12:21:36;;;;;;;4.07;0.90;;;;;;;;;;4982302;28;20106;-66
2022/07/14 12:24:03;;;;;;;2.70;0.73;;;;;;;;;;4981619;28;20046;-64
2022/07/14 12:26:30;;;;;;;4.95;0.77;;;;;;;;;;4981724;28;20038;-64
2022/07/14 12:28:58;;;;;;;2.78;0.65;;;;;;;;;;4964958;28;20051;-64
2022/07/14 12:31:24;;;;;;;5.40;0.80;;;;;;;;;;4981557;28;20130;-64
2022/07/14 12:33:52;;;;;;;4.88;0.80;;;;;;;;;;4981754;28;20068;-64
2022/07/14 12:36:20;;;;;;;4.68;1.13;;;;;;;;;;4981889;28;20050;-64
2022/07/14 12:38:47;;;;;;;4.47;0.85;;;;;;;;;;4975366;28;20054;-64
2022/07/14 12:41:14;;;;;;;1.90;0.50;;;;;;;;;;4981343;28;20078;-64
2022/07/14 12:43:42;;;;;;;6.18;0.93;;;;;;;;;;4984281;28;20133;-65
2022/07/14 12:46:09;;;;;;;3.03;0.73;;;;;;;;;;4966786;28;20042;-64
2022/07/14 12:48:37;;;;;;;3.95;0.70;;;;;;;;;;4984984;28;20089;-64
2022/07/14 12:51:18;;;;;;;5.05;0.70;;;;;;;;;;4985212;28;20490;-65
2022/07/14 12:53:55;;;;;;;3.67;0.90;;;;;;;;;;4982022;28;20068;-64
2022/07/14 12:56:22;;;;;;;3.25;0.80;;;;;;;;;;4982395;28;20050;-64
2022/07/14 12:58:48;;;;;;;2.83;0.93;;;;;;;;;;4986299;28;20088;-64
2022/07/14 13:01:15;;;;;;;4.03;0.93;;;;;;;;;;4986952;28;20042;-64
2022/07/14 13:03:41;;;;;;;4.03;0.65;;;;;;;;;;4989550;28;20046;-64
2022/07/14 13:06:07;;;;;;;4.68;1.10;;;;;;;;;;4988261;28;20046;-64
2022/07/14 13:08:35;;;;;;;3.42;0.57;;;;;;;;;;4967294;28;20057;-64
2022/07/14 13:11:02;;;;;;;5.35;1.00;;;;;;;;;;4984975;28;20109;-64
2022/07/14 13:13:30;;;;;;;2.22;0.70;;;;;;;;;;4986081;28;20128;-64
2022/07/14 13:16:16;;;;;;;5.50;0.73;;;;;;;;;;4983633;28;20399;-64
2022/07/14 13:19:02;;;;;;;6.00;0.68;;;;;;;;;;4981135;28;20042;-65
2022/07/14 13:21:44;;;;;;;2.95;0.70;;;;;;;;;;4964578;28;20082;-66
2022/07/14 13:24:19;;;;;;;5.28;0.82;;;;;;;;;;4981868;28;20046;-65
2022/07/14 13:26:57;;;;;;;9.43;0.93;;;;;;;;;;4982943;28;20047;-65
2022/07/14 13:29:24;;;;;;;5.45;0.80;;;;;;;;;;4990308;28;20403;-66
2022/07/14 13:31:50;;;;;;;7.55;1.05;;;;;;;;;;4981808;28;20042;-65
2022/07/14 13:34:17;;;;;;;4.60;0.80;;;;;;;;;;4984335;28;20118;-65
2022/07/14 13:36:43;;;;;;;4.68;0.90;;;;;;;;;;4967660;28;20054;-66
2022/07/14 13:39:10;;;;;;;3.97;0.80;;;;;;;;;;4967735;28;20054;-66
2022/07/14 13:41:37;;;;;;;5.47;0.95;;;;;;;;;;4984143;28;20057;-66
2022/07/14 13:44:03;;;;;;;4.15;0.80;;;;;;;;;;4985425;28;20039;-66
2022/07/14 13:46:31;;;;;;;2.47;0.60;;;;;;;;;;4983210;28;20042;-66
2022/07/14 13:48:57;;;;;;;4.25;1.00;;;;;;;;;;4983717;28;20041;-66
2022/07/14 13:54:08;;;;;;;3.40;0.70;;;;;;;;;;4982851;28;20050;-66
2022/07/14 13:56:34;;;;;;;6.10;0.60;;;;;;;;;;4980221;28;20427;-66
2022/07/14 13:59:02;;;;;;;5.47;1.00;;;;;;;;;;4980812;28;20103;-66
2022/07/14 14:01:28;;;;;;;3.85;0.95;;;;;;;;;;4984128;28;20086;-66
2022/07/14 14:03:54;;;;;;;2.53;0.70;;;;;;;;;;4985316;28;20043;-66
2022/07/14 14:06:21;;;;;;;1.90;0.57;;;;;;;;;;4982763;28;20065;-66
2022/07/14 14:08:47;;;;;;;3.00;0.63;;;;;;;;;;4966001;28;20169;-66
2022/07/14 14:11:13;;;;;;;4.63;0.90;;;;;;;;;;4984217;28;20486;-66
2022/07/14 14:13:39;;;;;;;5.65;1.00;;;;;;;;;;4980737;28;20381;-66
2022/07/14 14:16:06;;;;;;;6.85;0.90;;;;;;;;;;4984282;28;20053;-66
2022/07/14 14:18:33;;;;;;;3.67;0.82;;;;;;;;;;4983443;28;20110;-66
2022/07/14 14:21:00;;;;;;;2.80;0.90;;;;;;;;;;4965573;28;20054;-66
2022/07/14 14:23:30;;;;;;;4.75;1.02;;;;;;;;;;4984230;28;20494;-66
2022/07/14 14:25:56;;;;;;;3.97;0.70;;;;;;;;;;4966926;28;20063;-66
2022/07/14 14:28:24;;;;;;;5.13;1.20;;;;;;;;;;4982300;28;20468;-66
2022/07/14 14:30:50;;;;;;;7.50;1.70;;;;;;;;;;4978260;28;20107;-66
2022/07/14 14:33:17;;;;;;;6.15;1.40;;;;;;;;;;4981931;28;20061;-66
2022/07/14 14:35:43;;;;;;;7.45;1.30;;;;;;;;;;4983630;28;20468;-66
2022/07/14 14:38:09;;;;;;;7.00;1.40;;;;;;;;;;4984107;28;20151;-66
2022/07/14 14:40:36;;;;;;;6.65;1.40;;;;;;;;;;4982422;28;20367;-66
2022/07/14 14:43:05;;;;;;;7.93;2.58;;;;;;;;;;4965201;28;20042;-66
2022/07/14 14:45:32;;;;;;;4.05;1.08;;;;;;;;;;4983025;28;20494;-66
2022/07/14 14:47:58;;;;;;;6.85;1.27;;;;;;;;;;4982343;28;20081;-73
2022/07/14 14:50:24;;;;;;;8.85;1.70;;;;;;;;;;4982853;28;20333;-66
2022/07/14 14:52:50;;;;;;;8.88;1.67;;;;;;;;;;4983230;28;20061;-66
2022/07/14 14:55:18;;;;;;;10.35;1.60;;;;;;;;;;4982393;28;20050;-65
2022/07/14 14:57:45;;;;;;;7.13;1.50;;;;;;;;;;4966658;28;20050;-66
2022/07/14 15:00:11;;;;;;;4.88;1.40;;;;;;;;;;4977503;28;20046;-66